EJU47PT LSGG-LEBL
Flight info
| Callsign | EJU47PT |
|---|---|
| Flight time | 1h 10m |
| Altitude | 29000 |
| Route | BALSI DCT RETNO DCT TUPOX DCT MTG DCT DIVKO DCT NILDU N975 BISBA |
| Aircraft | A320/M-SDE2E3FGHIJ1RWXYZ/LB1 |
Departure
| Time | 2026-05-06 14:42 |
|---|---|
| Airport | Geneva International Airport (LSGG) |
Arrival
| Time | 2026-05-06 15:53 |
|---|---|
| Airport | Josep Tarradellas Barcelona-El Prat Airport (LEBL) |
| Time | Latitude | Longitude | Altitude | Speed | Heading |
|---|---|---|---|---|---|
| 2026-05-06 14:13 | 46.22977 | 6.10497 | 1400 ft | 0 kts | 135° |
| 2026-05-06 14:15 | 46.22980 | 6.10493 | 1401 ft | 0 kts | 135° |
| 2026-05-06 14:31 | 46.22988 | 6.10481 | 1406 ft | 4 kts | 129° |
| 2026-05-06 14:31 | 46.23001 | 6.10449 | 1401 ft | 4 kts | 98° |
| 2026-05-06 14:31 | 46.22998 | 6.10414 | 1399 ft | 4 kts | 54° |
| 2026-05-06 14:31 | 46.22992 | 6.10404 | 1403 ft | 0 kts | 45° |
| 2026-05-06 14:33 | 46.23004 | 6.10422 | 1397 ft | 6 kts | 46° |
| 2026-05-06 14:33 | 46.23057 | 6.10498 | 1395 ft | 14 kts | 46° |
| 2026-05-06 14:34 | 46.23129 | 6.10605 | 1397 ft | 15 kts | 45° |
| 2026-05-06 14:34 | 46.23206 | 6.10720 | 1393 ft | 16 kts | 45° |
| 2026-05-06 14:34 | 46.23297 | 6.10794 | 1393 ft | 13 kts | 14° |
| 2026-05-06 14:34 | 46.23369 | 6.10770 | 1397 ft | 11 kts | 317° |
| 2026-05-06 14:35 | 46.23427 | 6.10696 | 1395 ft | 12 kts | 337° |
| 2026-05-06 14:35 | 46.23491 | 6.10763 | 1389 ft | 12 kts | 46° |
| 2026-05-06 14:35 | 46.23545 | 6.10845 | 1389 ft | 11 kts | 46° |
| 2026-05-06 14:35 | 46.23596 | 6.10919 | 1390 ft | 10 kts | 45° |
| 2026-05-06 14:36 | 46.23642 | 6.10987 | 1388 ft | 9 kts | 45° |
| 2026-05-06 14:36 | 46.23689 | 6.11055 | 1387 ft | 12 kts | 46° |
| 2026-05-06 14:36 | 46.23756 | 6.11154 | 1381 ft | 16 kts | 47° |
| 2026-05-06 14:36 | 46.23837 | 6.11276 | 1374 ft | 17 kts | 45° |
| 2026-05-06 14:37 | 46.23918 | 6.11394 | 1375 ft | 17 kts | 45° |
| 2026-05-06 14:37 | 46.24000 | 6.11513 | 1372 ft | 17 kts | 45° |
| 2026-05-06 14:37 | 46.24084 | 6.11636 | 1368 ft | 17 kts | 46° |
| 2026-05-06 14:37 | 46.24169 | 6.11760 | 1365 ft | 18 kts | 45° |
| 2026-05-06 14:38 | 46.24256 | 6.11887 | 1362 ft | 17 kts | 46° |
| 2026-05-06 14:38 | 46.24334 | 6.12002 | 1364 ft | 14 kts | 45° |
| 2026-05-06 14:38 | 46.24390 | 6.12083 | 1368 ft | 9 kts | 45° |
| 2026-05-06 14:38 | 46.24444 | 6.12163 | 1371 ft | 12 kts | 45° |
| 2026-05-06 14:39 | 46.24496 | 6.12239 | 1372 ft | 9 kts | 45° |
| 2026-05-06 14:39 | 46.24539 | 6.12303 | 1372 ft | 10 kts | 46° |
| 2026-05-06 14:39 | 46.24603 | 6.12397 | 1370 ft | 14 kts | 45° |
| 2026-05-06 14:39 | 46.24678 | 6.12507 | 1364 ft | 16 kts | 44° |
| 2026-05-06 14:40 | 46.24760 | 6.12625 | 1362 ft | 16 kts | 45° |
| 2026-05-06 14:40 | 46.24826 | 6.12679 | 1363 ft | 6 kts | 17° |
| 2026-05-06 14:40 | 46.24850 | 6.12690 | 1364 ft | 1 kts | 17° |
| 2026-05-06 14:40 | 46.24897 | 6.12711 | 1365 ft | 16 kts | 17° |
| 2026-05-06 14:41 | 46.24988 | 6.12730 | 1370 ft | 11 kts | 339° |
| 2026-05-06 14:41 | 46.25005 | 6.12658 | 1372 ft | 6 kts | 258° |
| 2026-05-06 14:41 | 46.24981 | 6.12620 | 1372 ft | 5 kts | 220° |
| 2026-05-06 14:41 | 46.24949 | 6.12573 | 1372 ft | 11 kts | 225° |
| 2026-05-06 14:42 | 46.24734 | 6.12261 | 1372 ft | 78 kts | 225° |
| 2026-05-06 14:42 | 46.24212 | 6.11500 | 1374 ft | 132 kts | 225° |
| 2026-05-06 14:42 | 46.23463 | 6.10402 | 1440 ft | 170 kts | 225° |
| 2026-05-06 14:42 | 46.22623 | 6.09153 | 2019 ft | 175 kts | 225° |
| 2026-05-06 14:43 | 46.21761 | 6.07886 | 2823 ft | 179 kts | 225° |
| 2026-05-06 14:43 | 46.20835 | 6.06546 | 3293 ft | 201 kts | 225° |
| 2026-05-06 14:43 | 46.19790 | 6.05025 | 3774 ft | 225 kts | 225° |
| 2026-05-06 14:43 | 46.18632 | 6.03327 | 4264 ft | 247 kts | 225° |
| 2026-05-06 14:44 | 46.17400 | 6.01522 | 5039 ft | 256 kts | 225° |
| 2026-05-06 14:44 | 46.16134 | 5.99670 | 5897 ft | 261 kts | 226° |
| 2026-05-06 14:44 | 46.14871 | 5.97791 | 6808 ft | 263 kts | 226° |
| 2026-05-06 14:45 | 46.11666 | 5.95328 | 8433 ft | 276 kts | 183° |
| 2026-05-06 14:45 | 46.09739 | 5.95643 | 9279 ft | 281 kts | 173° |
| 2026-05-06 14:45 | 46.07797 | 5.96112 | 10104 ft | 285 kts | 173° |
| 2026-05-06 14:45 | 46.05777 | 5.96598 | 10457 ft | 306 kts | 173° |
| 2026-05-06 14:46 | 46.03624 | 5.97107 | 10934 ft | 318 kts | 173° |
| 2026-05-06 14:46 | 46.01420 | 5.97627 | 11640 ft | 323 kts | 173° |
| 2026-05-06 14:46 | 45.99183 | 5.98152 | 12321 ft | 328 kts | 173° |
| 2026-05-06 14:46 | 45.96908 | 5.98647 | 13030 ft | 332 kts | 177° |
| 2026-05-06 14:47 | 45.94594 | 5.98660 | 13742 ft | 335 kts | 185° |
| 2026-05-06 14:47 | 45.92254 | 5.98513 | 14391 ft | 338 kts | 185° |
| 2026-05-06 14:47 | 45.89896 | 5.98366 | 15065 ft | 340 kts | 184° |
| 2026-05-06 14:47 | 45.87520 | 5.98220 | 15723 ft | 343 kts | 184° |
| 2026-05-06 14:48 | 45.85094 | 5.98073 | 16405 ft | 346 kts | 184° |
| 2026-05-06 14:48 | 45.82715 | 5.97931 | 17076 ft | 348 kts | 184° |
| 2026-05-06 14:48 | 45.80288 | 5.97787 | 17763 ft | 351 kts | 184° |
| 2026-05-06 14:48 | 45.77802 | 5.97646 | 18432 ft | 354 kts | 184° |
| 2026-05-06 14:49 | 45.75334 | 5.97529 | 18998 ft | 356 kts | 183° |
| 2026-05-06 14:49 | 45.72885 | 5.97430 | 19566 ft | 358 kts | 183° |
| 2026-05-06 14:49 | 45.70355 | 5.97330 | 20145 ft | 360 kts | 183° |
| 2026-05-06 14:49 | 45.67839 | 5.97225 | 20723 ft | 363 kts | 183° |
| 2026-05-06 14:50 | 45.66163 | 5.97144 | 21102 ft | 364 kts | 184° |
| 2026-05-06 14:50 | 45.62761 | 5.96954 | 21857 ft | 367 kts | 184° |
| 2026-05-06 14:50 | 45.61068 | 5.96853 | 22218 ft | 369 kts | 184° |
| 2026-05-06 14:50 | 45.58492 | 5.96697 | 22760 ft | 372 kts | 184° |
| 2026-05-06 14:51 | 45.55897 | 5.96543 | 23315 ft | 374 kts | 184° |
| 2026-05-06 14:51 | 45.53287 | 5.96387 | 23788 ft | 377 kts | 184° |
| 2026-05-06 14:51 | 45.50662 | 5.96230 | 24239 ft | 379 kts | 184° |
| 2026-05-06 14:51 | 45.48025 | 5.96028 | 24672 ft | 379 kts | 188° |
| 2026-05-06 14:52 | 45.45433 | 5.95350 | 25093 ft | 379 kts | 194° |
| 2026-05-06 14:52 | 45.42847 | 5.94542 | 25468 ft | 381 kts | 194° |
| 2026-05-06 14:52 | 45.40255 | 5.93730 | 25877 ft | 382 kts | 195° |
| 2026-05-06 14:52 | 45.37659 | 5.92920 | 26329 ft | 382 kts | 195° |
| 2026-05-06 14:53 | 45.35059 | 5.92110 | 26737 ft | 383 kts | 195° |
| 2026-05-06 14:53 | 45.32452 | 5.91296 | 27115 ft | 384 kts | 195° |
| 2026-05-06 14:53 | 45.29838 | 5.90483 | 27454 ft | 385 kts | 195° |
| 2026-05-06 14:53 | 45.27217 | 5.89669 | 27837 ft | 386 kts | 196° |
| 2026-05-06 14:54 | 45.24583 | 5.88852 | 28222 ft | 388 kts | 196° |
| 2026-05-06 14:54 | 45.21942 | 5.88030 | 28606 ft | 389 kts | 196° |
| 2026-05-06 14:54 | 45.19301 | 5.87210 | 28890 ft | 389 kts | 196° |
| 2026-05-06 14:54 | 45.16696 | 5.86410 | 28934 ft | 375 kts | 197° |
| 2026-05-06 14:55 | 45.14195 | 5.85646 | 28931 ft | 363 kts | 197° |
| 2026-05-06 14:55 | 45.09308 | 5.84132 | 28929 ft | 358 kts | 197° |
| 2026-05-06 14:56 | 45.04441 | 5.82613 | 28931 ft | 357 kts | 197° |
| 2026-05-06 14:56 | 44.99602 | 5.81122 | 28930 ft | 354 kts | 197° |
| 2026-05-06 14:57 | 44.94796 | 5.79636 | 28927 ft | 353 kts | 197° |
| 2026-05-06 14:57 | 44.89996 | 5.78155 | 28923 ft | 353 kts | 197° |
| 2026-05-06 14:58 | 44.85194 | 5.76688 | 28918 ft | 353 kts | 197° |
| 2026-05-06 14:58 | 44.80401 | 5.75225 | 28913 ft | 352 kts | 197° |
| 2026-05-06 14:59 | 44.75616 | 5.73767 | 28922 ft | 351 kts | 197° |
| 2026-05-06 14:59 | 44.70842 | 5.72315 | 28923 ft | 350 kts | 198° |
| 2026-05-06 15:00 | 44.66078 | 5.70855 | 28954 ft | 351 kts | 198° |
| 2026-05-06 15:00 | 44.61298 | 5.69402 | 28924 ft | 352 kts | 198° |
| 2026-05-06 15:01 | 44.56511 | 5.67949 | 28914 ft | 352 kts | 198° |
| 2026-05-06 15:01 | 44.51718 | 5.66494 | 28901 ft | 353 kts | 198° |
| 2026-05-06 15:02 | 44.46915 | 5.65038 | 28886 ft | 353 kts | 198° |
| 2026-05-06 15:02 | 44.42113 | 5.63594 | 28893 ft | 354 kts | 198° |
| 2026-05-06 15:03 | 44.37337 | 5.61989 | 28893 ft | 350 kts | 205° |
| 2026-05-06 15:03 | 44.32827 | 5.59512 | 28898 ft | 348 kts | 206° |
| 2026-05-06 15:04 | 44.28313 | 5.57039 | 28856 ft | 349 kts | 206° |
| 2026-05-06 15:04 | 44.23785 | 5.54563 | 28908 ft | 350 kts | 206° |
| 2026-05-06 15:05 | 44.19260 | 5.52096 | 28923 ft | 349 kts | 206° |
| 2026-05-06 15:05 | 44.14746 | 5.49636 | 28915 ft | 348 kts | 206° |
| 2026-05-06 15:06 | 44.10234 | 5.47174 | 28917 ft | 348 kts | 206° |
| 2026-05-06 15:06 | 44.05737 | 5.44723 | 28897 ft | 347 kts | 206° |
| 2026-05-06 15:07 | 44.01248 | 5.42289 | 28901 ft | 346 kts | 206° |
| 2026-05-06 15:07 | 43.96737 | 5.39847 | 28904 ft | 346 kts | 206° |
| 2026-05-06 15:08 | 43.92258 | 5.37423 | 28904 ft | 345 kts | 206° |
| 2026-05-06 15:08 | 43.87785 | 5.35010 | 28885 ft | 345 kts | 206° |
| 2026-05-06 15:09 | 43.83321 | 5.32605 | 28918 ft | 344 kts | 206° |
| 2026-05-06 15:09 | 43.78850 | 5.30192 | 28906 ft | 345 kts | 206° |
| 2026-05-06 15:10 | 43.74367 | 5.27776 | 28902 ft | 346 kts | 206° |
| 2026-05-06 15:10 | 43.69875 | 5.25370 | 28874 ft | 346 kts | 206° |
| 2026-05-06 15:11 | 43.65386 | 5.22963 | 28893 ft | 346 kts | 206° |
| 2026-05-06 15:11 | 43.60905 | 5.20556 | 28901 ft | 346 kts | 206° |
| 2026-05-06 15:12 | 43.56423 | 5.18163 | 28906 ft | 345 kts | 206° |
| 2026-05-06 15:12 | 43.51940 | 5.15770 | 28908 ft | 345 kts | 206° |
| 2026-05-06 15:13 | 43.47461 | 5.13381 | 28897 ft | 345 kts | 206° |
| 2026-05-06 15:13 | 43.42988 | 5.11004 | 28901 ft | 345 kts | 206° |
| 2026-05-06 15:14 | 43.38563 | 5.08512 | 28906 ft | 341 kts | 213° |
| 2026-05-06 15:14 | 43.34647 | 5.04906 | 28912 ft | 339 kts | 217° |
| 2026-05-06 15:15 | 43.30759 | 5.01246 | 28887 ft | 339 kts | 217° |
| 2026-05-06 15:15 | 43.26878 | 4.97602 | 28906 ft | 338 kts | 217° |
| 2026-05-06 15:16 | 43.22993 | 4.93958 | 28931 ft | 338 kts | 217° |
| 2026-05-06 15:16 | 43.19103 | 4.90310 | 28914 ft | 339 kts | 217° |
| 2026-05-06 15:17 | 43.15211 | 4.86658 | 28917 ft | 339 kts | 217° |
| 2026-05-06 15:17 | 43.11316 | 4.83016 | 28889 ft | 339 kts | 217° |
| 2026-05-06 15:18 | 43.07417 | 4.79375 | 28903 ft | 339 kts | 217° |
| 2026-05-06 15:18 | 43.03725 | 4.75406 | 28912 ft | 337 kts | 224° |
| 2026-05-06 15:19 | 43.00220 | 4.71154 | 28922 ft | 337 kts | 224° |
| 2026-05-06 15:19 | 42.96711 | 4.66907 | 28924 ft | 337 kts | 224° |
| 2026-05-06 15:20 | 42.93195 | 4.62672 | 28925 ft | 337 kts | 224° |
| 2026-05-06 15:20 | 42.89680 | 4.58442 | 28913 ft | 337 kts | 224° |
| 2026-05-06 15:21 | 42.86163 | 4.54212 | 28936 ft | 337 kts | 224° |
| 2026-05-06 15:21 | 42.82643 | 4.49981 | 28932 ft | 338 kts | 224° |
| 2026-05-06 15:22 | 42.79120 | 4.45759 | 28936 ft | 338 kts | 224° |
| 2026-05-06 15:22 | 42.75591 | 4.41525 | 28936 ft | 338 kts | 224° |
| 2026-05-06 15:23 | 42.72061 | 4.37305 | 28934 ft | 338 kts | 223° |
| 2026-05-06 15:23 | 42.68526 | 4.33091 | 28938 ft | 338 kts | 224° |
| 2026-05-06 15:24 | 42.64991 | 4.28877 | 28933 ft | 338 kts | 223° |
| 2026-05-06 15:24 | 42.61458 | 4.24669 | 28945 ft | 338 kts | 224° |
| 2026-05-06 15:25 | 42.57922 | 4.20459 | 28947 ft | 338 kts | 223° |
| 2026-05-06 15:25 | 42.54382 | 4.16260 | 28962 ft | 339 kts | 223° |
| 2026-05-06 15:26 | 42.50830 | 4.12063 | 28921 ft | 339 kts | 223° |
| 2026-05-06 15:26 | 42.47275 | 4.07867 | 28926 ft | 339 kts | 223° |
| 2026-05-06 15:27 | 42.43720 | 4.03669 | 28931 ft | 339 kts | 224° |
| 2026-05-06 15:27 | 42.40741 | 4.00151 | 28934 ft | 339 kts | 224° |
| 2026-05-06 15:28 | 42.37183 | 3.95957 | 28943 ft | 339 kts | 223° |
| 2026-05-06 15:28 | 42.33623 | 3.91770 | 28899 ft | 339 kts | 224° |
| 2026-05-06 15:29 | 42.30053 | 3.87572 | 28940 ft | 341 kts | 224° |
| 2026-05-06 15:29 | 42.26470 | 3.83381 | 28943 ft | 341 kts | 224° |
| 2026-05-06 15:30 | 42.22843 | 3.79140 | 28263 ft | 348 kts | 224° |
| 2026-05-06 15:30 | 42.21016 | 3.77001 | 27707 ft | 346 kts | 224° |
| 2026-05-06 15:30 | 42.19212 | 3.74895 | 27316 ft | 340 kts | 224° |
| 2026-05-06 15:30 | 42.17441 | 3.72833 | 26942 ft | 334 kts | 224° |
| 2026-05-06 15:31 | 42.15698 | 3.70803 | 26554 ft | 329 kts | 224° |
| 2026-05-06 15:31 | 42.13980 | 3.68801 | 26176 ft | 324 kts | 224° |
| 2026-05-06 15:31 | 42.12288 | 3.66835 | 25797 ft | 319 kts | 224° |
| 2026-05-06 15:32 | 42.08974 | 3.62980 | 25035 ft | 311 kts | 225° |
| 2026-05-06 15:32 | 42.07464 | 3.60940 | 24708 ft | 307 kts | 229° |
| 2026-05-06 15:32 | 42.05987 | 3.58862 | 24404 ft | 307 kts | 229° |
| 2026-05-06 15:32 | 42.04509 | 3.56795 | 24097 ft | 306 kts | 229° |
| 2026-05-06 15:33 | 42.03033 | 3.54738 | 23794 ft | 305 kts | 228° |
| 2026-05-06 15:33 | 42.01563 | 3.52693 | 23480 ft | 304 kts | 229° |
| 2026-05-06 15:33 | 42.00098 | 3.50651 | 23141 ft | 303 kts | 229° |
| 2026-05-06 15:33 | 41.98637 | 3.48610 | 22822 ft | 303 kts | 229° |
| 2026-05-06 15:34 | 41.97177 | 3.46574 | 22519 ft | 303 kts | 229° |
| 2026-05-06 15:34 | 41.95716 | 3.44539 | 22227 ft | 302 kts | 229° |
| 2026-05-06 15:34 | 41.94256 | 3.42507 | 21925 ft | 302 kts | 229° |
| 2026-05-06 15:34 | 41.92798 | 3.40478 | 21609 ft | 301 kts | 228° |
| 2026-05-06 15:35 | 41.91343 | 3.38463 | 21322 ft | 300 kts | 228° |
| 2026-05-06 15:35 | 41.89896 | 3.36458 | 21020 ft | 299 kts | 228° |
| 2026-05-06 15:35 | 41.88450 | 3.34457 | 20716 ft | 298 kts | 228° |
| 2026-05-06 15:35 | 41.87004 | 3.32460 | 20419 ft | 298 kts | 228° |
| 2026-05-06 15:36 | 41.85564 | 3.30468 | 20123 ft | 297 kts | 228° |
| 2026-05-06 15:36 | 41.84127 | 3.28476 | 19826 ft | 297 kts | 228° |
| 2026-05-06 15:36 | 41.82693 | 3.26488 | 19528 ft | 297 kts | 229° |
| 2026-05-06 15:36 | 41.81260 | 3.24499 | 19232 ft | 296 kts | 229° |
| 2026-05-06 15:37 | 41.79828 | 3.22513 | 18929 ft | 296 kts | 229° |
| 2026-05-06 15:37 | 41.78396 | 3.20534 | 18638 ft | 296 kts | 229° |
| 2026-05-06 15:37 | 41.76960 | 3.18553 | 18175 ft | 297 kts | 228° |
| 2026-05-06 15:37 | 41.75522 | 3.16573 | 17599 ft | 295 kts | 228° |
| 2026-05-06 15:38 | 41.74092 | 3.14605 | 17038 ft | 294 kts | 228° |
| 2026-05-06 15:38 | 41.72666 | 3.12646 | 16478 ft | 293 kts | 228° |
| 2026-05-06 15:38 | 41.71249 | 3.10700 | 15937 ft | 291 kts | 228° |
| 2026-05-06 15:38 | 41.69823 | 3.08741 | 15409 ft | 296 kts | 228° |
| 2026-05-06 15:39 | 41.68378 | 3.06758 | 14889 ft | 300 kts | 227° |
| 2026-05-06 15:39 | 41.66920 | 3.04756 | 14362 ft | 299 kts | 227° |
| 2026-05-06 15:39 | 41.65390 | 3.02909 | 13856 ft | 295 kts | 217° |
| 2026-05-06 15:39 | 41.63604 | 3.01571 | 13315 ft | 295 kts | 207° |
| 2026-05-06 15:40 | 41.61743 | 3.00428 | 12837 ft | 294 kts | 207° |
| 2026-05-06 15:40 | 41.59885 | 2.99281 | 12373 ft | 294 kts | 207° |
| 2026-05-06 15:40 | 41.58032 | 2.98136 | 11906 ft | 293 kts | 207° |
| 2026-05-06 15:40 | 41.56190 | 2.96995 | 11448 ft | 291 kts | 208° |
| 2026-05-06 15:41 | 41.54361 | 2.95864 | 11049 ft | 287 kts | 208° |
| 2026-05-06 15:41 | 41.52581 | 2.94765 | 10651 ft | 277 kts | 208° |
| 2026-05-06 15:41 | 41.50864 | 2.93706 | 10246 ft | 267 kts | 207° |
| 2026-05-06 15:41 | 41.49201 | 2.92678 | 9864 ft | 261 kts | 207° |
| 2026-05-06 15:42 | 41.47689 | 2.91299 | 9683 ft | 272 kts | 229° |
| 2026-05-06 15:42 | 41.46718 | 2.89146 | 9554 ft | 274 kts | 254° |
| 2026-05-06 15:42 | 41.46299 | 2.86665 | 9421 ft | 275 kts | 259° |
| 2026-05-06 15:42 | 41.45925 | 2.84165 | 9289 ft | 275 kts | 259° |
| 2026-05-06 15:43 | 41.45557 | 2.81667 | 9150 ft | 275 kts | 259° |
| 2026-05-06 15:43 | 41.45191 | 2.79171 | 9022 ft | 274 kts | 259° |
| 2026-05-06 15:43 | 41.44824 | 2.76680 | 8885 ft | 273 kts | 259° |
| 2026-05-06 15:43 | 41.44461 | 2.74224 | 8601 ft | 268 kts | 259° |
| 2026-05-06 15:44 | 41.44102 | 2.71805 | 8249 ft | 265 kts | 259° |
| 2026-05-06 15:44 | 41.43743 | 2.69412 | 7878 ft | 262 kts | 259° |
| 2026-05-06 15:44 | 41.43385 | 2.67039 | 7510 ft | 260 kts | 259° |
| 2026-05-06 15:44 | 41.43029 | 2.64687 | 7137 ft | 259 kts | 260° |
| 2026-05-06 15:45 | 41.42673 | 2.62338 | 6752 ft | 258 kts | 259° |
| 2026-05-06 15:45 | 41.42313 | 2.59979 | 6373 ft | 256 kts | 260° |
| 2026-05-06 15:45 | 41.41957 | 2.57654 | 5970 ft | 255 kts | 260° |
| 2026-05-06 15:45 | 41.41605 | 2.55350 | 5601 ft | 252 kts | 260° |
| 2026-05-06 15:46 | 41.41260 | 2.53073 | 5244 ft | 249 kts | 260° |
| 2026-05-06 15:46 | 41.40917 | 2.50820 | 4868 ft | 248 kts | 260° |
| 2026-05-06 15:46 | 41.40575 | 2.48577 | 4483 ft | 246 kts | 260° |
| 2026-05-06 15:46 | 41.40241 | 2.46389 | 4333 ft | 234 kts | 259° |
| 2026-05-06 15:47 | 41.39925 | 2.44323 | 4267 ft | 221 kts | 260° |
| 2026-05-06 15:47 | 41.39621 | 2.42335 | 4184 ft | 219 kts | 259° |
| 2026-05-06 15:47 | 41.39316 | 2.40354 | 4090 ft | 217 kts | 259° |
| 2026-05-06 15:47 | 41.39014 | 2.38394 | 3998 ft | 216 kts | 259° |
| 2026-05-06 15:48 | 41.38713 | 2.36434 | 3908 ft | 216 kts | 259° |
| 2026-05-06 15:48 | 41.38413 | 2.34477 | 3816 ft | 214 kts | 259° |
| 2026-05-06 15:48 | 41.38098 | 2.32546 | 3693 ft | 214 kts | 254° |
| 2026-05-06 15:48 | 41.37524 | 2.30700 | 3345 ft | 216 kts | 246° |
| 2026-05-06 15:49 | 41.36887 | 2.28888 | 3043 ft | 216 kts | 245° |
| 2026-05-06 15:49 | 41.36264 | 2.27075 | 2749 ft | 214 kts | 244° |
| 2026-05-06 15:49 | 41.35664 | 2.25313 | 2460 ft | 203 kts | 244° |
| 2026-05-06 15:49 | 41.35100 | 2.23653 | 2209 ft | 191 kts | 243° |
| 2026-05-06 15:50 | 41.34578 | 2.22115 | 1958 ft | 174 kts | 241° |
| 2026-05-06 15:50 | 41.34095 | 2.20696 | 1731 ft | 161 kts | 243° |
| 2026-05-06 15:50 | 41.33658 | 2.19410 | 1533 ft | 145 kts | 242° |
| 2026-05-06 15:50 | 41.33247 | 2.18207 | 1344 ft | 138 kts | 240° |
| 2026-05-06 15:51 | 41.32849 | 2.17042 | 1135 ft | 137 kts | 241° |
| 2026-05-06 15:51 | 41.32454 | 2.15887 | 967 ft | 138 kts | 243° |
| 2026-05-06 15:51 | 41.32063 | 2.14740 | 775 ft | 136 kts | 241° |
| 2026-05-06 15:51 | 41.31674 | 2.13598 | 586 ft | 135 kts | 242° |
| 2026-05-06 15:52 | 41.31284 | 2.12456 | 374 ft | 135 kts | 240° |
| 2026-05-06 15:52 | 41.30903 | 2.11339 | 208 ft | 133 kts | 241° |
| 2026-05-06 15:52 | 41.30520 | 2.10221 | 49 ft | 133 kts | 242° |
| 2026-05-06 15:52 | 41.30153 | 2.09173 | 3 ft | 108 kts | 244° |
| 2026-05-06 15:53 | 41.29918 | 2.08467 | 8 ft | 59 kts | 248° |
| 2026-05-06 15:53 | 41.29796 | 2.08115 | 4 ft | 33 kts | 246° |
| 2026-05-06 15:53 | 41.29748 | 2.07827 | 3 ft | 29 kts | 270° |
| 2026-05-06 15:53 | 41.29764 | 2.07669 | 3 ft | 9 kts | 280° |
| 2026-05-06 15:54 | 41.29803 | 2.07617 | 3 ft | 8 kts | 333° |
| 2026-05-06 15:54 | 41.29849 | 2.07591 | 3 ft | 5 kts | 337° |
| 2026-05-06 15:54 | 41.29866 | 2.07582 | 2 ft | 0 kts | 337° |
| 2026-05-06 15:55 | 41.29866 | 2.07581 | 2 ft | 2 kts | 336° |
| 2026-05-06 15:55 | 41.29920 | 2.07547 | 3 ft | 12 kts | 334° |
| 2026-05-06 15:56 | 41.29991 | 2.07547 | 3 ft | 10 kts | 46° |
| 2026-05-06 15:56 | 41.30022 | 2.07629 | 3 ft | 9 kts | 65° |
| 2026-05-06 15:56 | 41.30047 | 2.07703 | 3 ft | 8 kts | 65° |
| 2026-05-06 15:56 | 41.30070 | 2.07770 | 4 ft | 8 kts | 65° |
| 2026-05-06 15:57 | 41.30094 | 2.07844 | 3 ft | 12 kts | 66° |
| 2026-05-06 15:57 | 41.30136 | 2.07963 | 3 ft | 15 kts | 66° |
| 2026-05-06 15:57 | 41.30180 | 2.08096 | 3 ft | 14 kts | 66° |
| 2026-05-06 15:57 | 41.30214 | 2.08190 | 3 ft | 10 kts | 65° |
| 2026-05-06 15:58 | 41.30265 | 2.08227 | 3 ft | 8 kts | 14° |
| 2026-05-06 15:58 | 41.30304 | 2.08241 | 3 ft | 1 kts | 14° |
| 2026-05-06 15:58 | 41.30308 | 2.08242 | 3 ft | 1 kts | 14° |
| 2026-05-06 15:58 | 41.30315 | 2.08245 | 3 ft | 0 kts | 14° |